sensor_id;sensor_type;location;lat;lon;timestamp;P1;durP1;ratioP1;P2;durP2;ratioP2
27209;SDS011;14721;42.668;23.386;2023-07-13T00:00:30;7.00;;;3.97;;
27209;SDS011;14721;42.668;23.386;2023-07-13T00:02:57;6.93;;;3.13;;
27209;SDS011;14721;42.668;23.386;2023-07-13T00:05:23;5.78;;;3.50;;
27209;SDS011;14721;42.668;23.386;2023-07-13T00:07:49;5.95;;;3.03;;
27209;SDS011;14721;42.668;23.386;2023-07-13T00:10:16;7.30;;;3.30;;
27209;SDS011;14721;42.668;23.386;2023-07-13T00:12:42;7.43;;;4.10;;
27209;SDS011;14721;42.668;23.386;2023-07-13T00:15:27;7.97;;;3.75;;
27209;SDS011;14721;42.668;23.386;2023-07-13T00:17:55;5.82;;;4.10;;
27209;SDS011;14721;42.668;23.386;2023-07-13T00:20:22;6.72;;;3.40;;
27209;SDS011;14721;42.668;23.386;2023-07-13T00:22:49;9.05;;;4.35;;
27209;SDS011;14721;42.668;23.386;2023-07-13T00:25:18;6.15;;;3.35;;
27209;SDS011;14721;42.668;23.386;2023-07-13T00:27:47;7.55;;;3.47;;
27209;SDS011;14721;42.668;23.386;2023-07-13T00:30:13;5.90;;;3.50;;
27209;SDS011;14721;42.668;23.386;2023-07-13T00:32:39;7.45;;;4.35;;
27209;SDS011;14721;42.668;23.386;2023-07-13T00:35:06;7.90;;;4.32;;
27209;SDS011;14721;42.668;23.386;2023-07-13T00:37:32;7.15;;;3.53;;
27209;SDS011;14721;42.668;23.386;2023-07-13T00:40:00;4.47;;;2.90;;
27209;SDS011;14721;42.668;23.386;2023-07-13T00:42:28;5.28;;;3.47;;
27209;SDS011;14721;42.668;23.386;2023-07-13T00:46:02;6.57;;;3.70;;
27209;SDS011;14721;42.668;23.386;2023-07-13T00:47:51;7.90;;;3.70;;
27209;SDS011;14721;42.668;23.386;2023-07-13T00:50:17;6.63;;;3.80;;
27209;SDS011;14721;42.668;23.386;2023-07-13T00:52:46;5.75;;;3.38;;
27209;SDS011;14721;42.668;23.386;2023-07-13T00:55:14;8.30;;;3.72;;
27209;SDS011;14721;42.668;23.386;2023-07-13T00:57:42;6.20;;;3.90;;
27209;SDS011;14721;42.668;23.386;2023-07-13T01:00:08;7.22;;;3.95;;
27209;SDS011;14721;42.668;23.386;2023-07-13T01:02:38;6.38;;;3.72;;
27209;SDS011;14721;42.668;23.386;2023-07-13T01:05:19;7.65;;;4.88;;
27209;SDS011;14721;42.668;23.386;2023-07-13T01:07:48;6.88;;;3.80;;
27209;SDS011;14721;42.668;23.386;2023-07-13T01:10:15;10.13;;;3.78;;
27209;SDS011;14721;42.668;23.386;2023-07-13T01:12:41;6.07;;;4.15;;
27209;SDS011;14721;42.668;23.386;2023-07-13T01:18:05;8.00;;;3.90;;
27209;SDS011;14721;42.668;23.386;2023-07-13T01:20:35;8.10;;;3.95;;
27209;SDS011;14721;42.668;23.386;2023-07-13T01:23:09;5.43;;;3.60;;
27209;SDS011;14721;42.668;23.386;2023-07-13T01:25:36;6.18;;;3.92;;
27209;SDS011;14721;42.668;23.386;2023-07-13T01:28:07;6.28;;;3.92;;
27209;SDS011;14721;42.668;23.386;2023-07-13T01:30:35;7.13;;;3.72;;
27209;SDS011;14721;42.668;23.386;2023-07-13T01:33:03;6.47;;;3.70;;
27209;SDS011;14721;42.668;23.386;2023-07-13T01:35:29;6.40;;;3.80;;
27209;SDS011;14721;42.668;23.386;2023-07-13T01:37:55;8.18;;;3.83;;
27209;SDS011;14721;42.668;23.386;2023-07-13T01:40:22;6.25;;;4.18;;
27209;SDS011;14721;42.668;23.386;2023-07-13T01:42:47;6.55;;;3.67;;
27209;SDS011;14721;42.668;23.386;2023-07-13T01:45:13;6.82;;;3.53;;
27209;SDS011;14721;42.668;23.386;2023-07-13T01:47:39;6.35;;;3.90;;
27209;SDS011;14721;42.668;23.386;2023-07-13T01:50:05;8.15;;;3.85;;
27209;SDS011;14721;42.668;23.386;2023-07-13T01:52:31;6.78;;;3.47;;
27209;SDS011;14721;42.668;23.386;2023-07-13T01:54:56;8.57;;;4.53;;
27209;SDS011;14721;42.668;23.386;2023-07-13T01:57:22;6.72;;;4.13;;
27209;SDS011;14721;42.668;23.386;2023-07-13T01:59:48;7.57;;;4.28;;
27209;SDS011;14721;42.668;23.386;2023-07-13T02:02:13;7.68;;;3.08;;
27209;SDS011;14721;42.668;23.386;2023-07-13T02:04:40;6.18;;;3.55;;
27209;SDS011;14721;42.668;23.386;2023-07-13T02:07:05;6.07;;;3.60;;
27209;SDS011;14721;42.668;23.386;2023-07-13T02:09:32;6.07;;;4.22;;
27209;SDS011;14721;42.668;23.386;2023-07-13T02:11:58;9.13;;;4.47;;
27209;SDS011;14721;42.668;23.386;2023-07-13T02:14:23;7.03;;;3.72;;
27209;SDS011;14721;42.668;23.386;2023-07-13T02:16:49;6.78;;;3.83;;
27209;SDS011;14721;42.668;23.386;2023-07-13T02:19:14;7.63;;;4.30;;
27209;SDS011;14721;42.668;23.386;2023-07-13T02:21:40;8.15;;;4.15;;
27209;SDS011;14721;42.668;23.386;2023-07-13T02:24:06;6.68;;;3.92;;
27209;SDS011;14721;42.668;23.386;2023-07-13T02:26:32;8.20;;;4.45;;
27209;SDS011;14721;42.668;23.386;2023-07-13T02:28:57;6.80;;;3.88;;
27209;SDS011;14721;42.668;23.386;2023-07-13T02:31:23;5.75;;;4.00;;
27209;SDS011;14721;42.668;23.386;2023-07-13T02:33:48;7.57;;;4.30;;
27209;SDS011;14721;42.668;23.386;2023-07-13T02:36:14;9.98;;;5.10;;
27209;SDS011;14721;42.668;23.386;2023-07-13T02:38:41;6.65;;;4.15;;
27209;SDS011;14721;42.668;23.386;2023-07-13T02:41:08;8.02;;;4.47;;
27209;SDS011;14721;42.668;23.386;2023-07-13T02:43:34;6.25;;;4.13;;
27209;SDS011;14721;42.668;23.386;2023-07-13T02:46:01;11.20;;;6.30;;
27209;SDS011;14721;42.668;23.386;2023-07-13T02:48:32;7.03;;;5.13;;
27209;SDS011;14721;42.668;23.386;2023-07-13T02:50:59;7.35;;;5.10;;
27209;SDS011;14721;42.668;23.386;2023-07-13T02:53:24;7.45;;;4.20;;
27209;SDS011;14721;42.668;23.386;2023-07-13T02:55:50;8.45;;;4.93;;
27209;SDS011;14721;42.668;23.386;2023-07-13T02:58:16;7.88;;;4.38;;
27209;SDS011;14721;42.668;23.386;2023-07-13T03:00:46;9.77;;;4.70;;
27209;SDS011;14721;42.668;23.386;2023-07-13T03:03:12;9.38;;;5.47;;
27209;SDS011;14721;42.668;23.386;2023-07-13T03:05:40;6.93;;;4.20;;
27209;SDS011;14721;42.668;23.386;2023-07-13T03:08:07;9.05;;;5.30;;
27209;SDS011;14721;42.668;23.386;2023-07-13T03:10:33;8.40;;;5.00;;
27209;SDS011;14721;42.668;23.386;2023-07-13T03:12:58;15.23;;;7.22;;
27209;SDS011;14721;42.668;23.386;2023-07-13T03:15:24;7.65;;;4.85;;
27209;SDS011;14721;42.668;23.386;2023-07-13T03:17:49;10.23;;;5.85;;
27209;SDS011;14721;42.668;23.386;2023-07-13T03:20:15;9.85;;;4.35;;
27209;SDS011;14721;42.668;23.386;2023-07-13T03:22:41;8.55;;;4.90;;
27209;SDS011;14721;42.668;23.386;2023-07-13T03:25:07;7.85;;;4.85;;
27209;SDS011;14721;42.668;23.386;2023-07-13T03:27:33;15.50;;;8.48;;
27209;SDS011;14721;42.668;23.386;2023-07-13T03:29:58;12.85;;;7.78;;
27209;SDS011;14721;42.668;23.386;2023-07-13T03:32:24;8.30;;;4.70;;
27209;SDS011;14721;42.668;23.386;2023-07-13T03:34:49;9.55;;;4.95;;
27209;SDS011;14721;42.668;23.386;2023-07-13T03:37:15;10.65;;;4.68;;
27209;SDS011;14721;42.668;23.386;2023-07-13T03:39:40;6.78;;;4.63;;
27209;SDS011;14721;42.668;23.386;2023-07-13T03:42:07;11.65;;;6.38;;
27209;SDS011;14721;42.668;23.386;2023-07-13T03:44:33;16.42;;;6.15;;
27209;SDS011;14721;42.668;23.386;2023-07-13T03:46:58;10.55;;;6.10;;
27209;SDS011;14721;42.668;23.386;2023-07-13T03:49:23;15.07;;;6.53;;
27209;SDS011;14721;42.668;23.386;2023-07-13T03:51:49;10.60;;;5.38;;
27209;SDS011;14721;42.668;23.386;2023-07-13T03:54:15;14.80;;;8.48;;
27209;SDS011;14721;42.668;23.386;2023-07-13T03:56:40;7.47;;;4.68;;
27209;SDS011;14721;42.668;23.386;2023-07-13T03:59:06;6.47;;;4.22;;
27209;SDS011;14721;42.668;23.386;2023-07-13T04:01:32;6.88;;;4.78;;
27209;SDS011;14721;42.668;23.386;2023-07-13T04:03:57;7.57;;;4.10;;
27209;SDS011;14721;42.668;23.386;2023-07-13T04:06:25;10.32;;;6.00;;
27209;SDS011;14721;42.668;23.386;2023-07-13T04:08:53;10.35;;;5.07;;
27209;SDS011;14721;42.668;23.386;2023-07-13T04:11:21;10.63;;;6.10;;
27209;SDS011;14721;42.668;23.386;2023-07-13T04:13:48;6.80;;;4.55;;
27209;SDS011;14721;42.668;23.386;2023-07-13T04:16:15;5.90;;;4.65;;
27209;SDS011;14721;42.668;23.386;2023-07-13T04:18:42;8.32;;;4.20;;
27209;SDS011;14721;42.668;23.386;2023-07-13T04:21:09;6.00;;;4.10;;
27209;SDS011;14721;42.668;23.386;2023-07-13T04:23:35;6.13;;;4.43;;
27209;SDS011;14721;42.668;23.386;2023-07-13T04:26:03;10.40;;;4.68;;
27209;SDS011;14721;42.668;23.386;2023-07-13T04:28:29;7.70;;;4.63;;
27209;SDS011;14721;42.668;23.386;2023-07-13T04:30:55;8.73;;;5.05;;
27209;SDS011;14721;42.668;23.386;2023-07-13T04:33:21;12.63;;;5.05;;
27209;SDS011;14721;42.668;23.386;2023-07-13T04:35:52;10.60;;;5.00;;
27209;SDS011;14721;42.668;23.386;2023-07-13T04:38:21;8.40;;;5.10;;
27209;SDS011;14721;42.668;23.386;2023-07-13T04:40:47;9.55;;;5.10;;
27209;SDS011;14721;42.668;23.386;2023-07-13T04:43:13;9.15;;;4.97;;
27209;SDS011;14721;42.668;23.386;2023-07-13T04:45:39;8.68;;;5.25;;
27209;SDS011;14721;42.668;23.386;2023-07-13T04:48:05;12.90;;;5.55;;
27209;SDS011;14721;42.668;23.386;2023-07-13T04:50:30;11.40;;;6.00;;
27209;SDS011;14721;42.668;23.386;2023-07-13T04:52:56;9.63;;;5.43;;
27209;SDS011;14721;42.668;23.386;2023-07-13T04:55:22;10.65;;;5.85;;
27209;SDS011;14721;42.668;23.386;2023-07-13T04:57:47;14.57;;;6.10;;
27209;SDS011;14721;42.668;23.386;2023-07-13T05:00:13;10.75;;;5.90;;
27209;SDS011;14721;42.668;23.386;2023-07-13T05:02:40;11.52;;;7.03;;
27209;SDS011;14721;42.668;23.386;2023-07-13T05:05:09;10.63;;;5.68;;
27209;SDS011;14721;42.668;23.386;2023-07-13T05:07:35;13.32;;;6.00;;
27209;SDS011;14721;42.668;23.386;2023-07-13T05:10:00;14.55;;;6.00;;
27209;SDS011;14721;42.668;23.386;2023-07-13T05:12:26;12.55;;;5.70;;
27209;SDS011;14721;42.668;23.386;2023-07-13T05:14:52;11.55;;;5.88;;
27209;SDS011;14721;42.668;23.386;2023-07-13T05:17:17;12.10;;;6.38;;
27209;SDS011;14721;42.668;23.386;2023-07-13T05:19:43;15.50;;;5.65;;
27209;SDS011;14721;42.668;23.386;2023-07-13T05:22:08;14.10;;;6.00;;
27209;SDS011;14721;42.668;23.386;2023-07-13T05:24:34;10.45;;;5.82;;
27209;SDS011;14721;42.668;23.386;2023-07-13T05:27:01;7.25;;;5.28;;
27209;SDS011;14721;42.668;23.386;2023-07-13T05:29:26;16.52;;;6.38;;
27209;SDS011;14721;42.668;23.386;2023-07-13T05:31:51;9.05;;;5.80;;
27209;SDS011;14721;42.668;23.386;2023-07-13T05:34:17;13.15;;;6.00;;
27209;SDS011;14721;42.668;23.386;2023-07-13T05:36:42;9.52;;;6.20;;
27209;SDS011;14721;42.668;23.386;2023-07-13T05:39:08;10.70;;;5.72;;
27209;SDS011;14721;42.668;23.386;2023-07-13T05:41:34;9.43;;;5.75;;
27209;SDS011;14721;42.668;23.386;2023-07-13T05:44:00;15.05;;;5.30;;
27209;SDS011;14721;42.668;23.386;2023-07-13T05:46:26;7.00;;;5.43;;
27209;SDS011;14721;42.668;23.386;2023-07-13T05:48:52;8.25;;;6.07;;
27209;SDS011;14721;42.668;23.386;2023-07-13T05:51:17;9.55;;;5.60;;
27209;SDS011;14721;42.668;23.386;2023-07-13T05:53:43;15.38;;;5.65;;
27209;SDS011;14721;42.668;23.386;2023-07-13T05:56:08;8.00;;;5.40;;
27209;SDS011;14721;42.668;23.386;2023-07-13T05:58:34;7.30;;;5.38;;
27209;SDS011;14721;42.668;23.386;2023-07-13T06:01:09;8.02;;;5.40;;
27209;SDS011;14721;42.668;23.386;2023-07-13T06:03:36;8.85;;;4.90;;
27209;SDS011;14721;42.668;23.386;2023-07-13T06:06:05;8.25;;;4.75;;
27209;SDS011;14721;42.668;23.386;2023-07-13T06:08:33;10.50;;;5.80;;
27209;SDS011;14721;42.668;23.386;2023-07-13T06:11:02;8.95;;;5.10;;
27209;SDS011;14721;42.668;23.386;2023-07-13T06:13:48;12.80;;;5.72;;
27209;SDS011;14721;42.668;23.386;2023-07-13T06:16:13;9.35;;;5.60;;
27209;SDS011;14721;42.668;23.386;2023-07-13T06:18:40;11.75;;;6.32;;
27209;SDS011;14721;42.668;23.386;2023-07-13T06:21:15;13.93;;;6.70;;
27209;SDS011;14721;42.668;23.386;2023-07-13T06:23:43;12.82;;;5.72;;
27209;SDS011;14721;42.668;23.386;2023-07-13T06:26:09;13.88;;;6.03;;
27209;SDS011;14721;42.668;23.386;2023-07-13T06:28:36;10.43;;;6.28;;
27209;SDS011;14721;42.668;23.386;2023-07-13T06:31:04;11.55;;;6.20;;
27209;SDS011;14721;42.668;23.386;2023-07-13T06:33:31;10.60;;;5.90;;
27209;SDS011;14721;42.668;23.386;2023-07-13T06:35:56;10.90;;;6.63;;
27209;SDS011;14721;42.668;23.386;2023-07-13T06:38:21;7.75;;;5.43;;
27209;SDS011;14721;42.668;23.386;2023-07-13T06:40:47;10.93;;;6.05;;
27209;SDS011;14721;42.668;23.386;2023-07-13T06:43:12;17.20;;;6.55;;
27209;SDS011;14721;42.668;23.386;2023-07-13T06:45:45;10.30;;;6.00;;
27209;SDS011;14721;42.668;23.386;2023-07-13T06:48:14;10.85;;;6.22;;
27209;SDS011;14721;42.668;23.386;2023-07-13T06:50:41;16.17;;;6.35;;
27209;SDS011;14721;42.668;23.386;2023-07-13T06:53:06;8.70;;;5.80;;
27209;SDS011;14721;42.668;23.386;2023-07-13T06:55:32;14.57;;;6.53;;
27209;SDS011;14721;42.668;23.386;2023-07-13T06:57:57;12.82;;;6.18;;
27209;SDS011;14721;42.668;23.386;2023-07-13T07:00:23;10.43;;;5.85;;
27209;SDS011;14721;42.668;23.386;2023-07-13T07:02:48;12.13;;;6.47;;
27209;SDS011;14721;42.668;23.386;2023-07-13T07:05:14;15.98;;;6.50;;
27209;SDS011;14721;42.668;23.386;2023-07-13T07:07:39;11.18;;;6.13;;
27209;SDS011;14721;42.668;23.386;2023-07-13T07:10:05;13.82;;;6.53;;
27209;SDS011;14721;42.668;23.386;2023-07-13T07:12:30;7.88;;;5.90;;
27209;SDS011;14721;42.668;23.386;2023-07-13T07:14:56;8.43;;;6.00;;
27209;SDS011;14721;42.668;23.386;2023-07-13T07:17:22;11.27;;;6.85;;
27209;SDS011;14721;42.668;23.386;2023-07-13T07:19:47;11.98;;;6.93;;
27209;SDS011;14721;42.668;23.386;2023-07-13T07:22:13;13.80;;;7.13;;
27209;SDS011;14721;42.668;23.386;2023-07-13T07:24:38;9.65;;;6.45;;
27209;SDS011;14721;42.668;23.386;2023-07-13T07:27:04;9.93;;;6.50;;
27209;SDS011;14721;42.668;23.386;2023-07-13T07:29:30;8.93;;;6.50;;
27209;SDS011;14721;42.668;23.386;2023-07-13T07:31:55;10.50;;;6.40;;
27209;SDS011;14721;42.668;23.386;2023-07-13T07:34:21;12.10;;;6.72;;
27209;SDS011;14721;42.668;23.386;2023-07-13T07:36:46;19.40;;;6.13;;
27209;SDS011;14721;42.668;23.386;2023-07-13T07:39:11;10.90;;;6.55;;
27209;SDS011;14721;42.668;23.386;2023-07-13T07:41:37;10.15;;;6.15;;
27209;SDS011;14721;42.668;23.386;2023-07-13T07:44:03;15.55;;;7.05;;
27209;SDS011;14721;42.668;23.386;2023-07-13T07:46:29;9.70;;;6.93;;
27209;SDS011;14721;42.668;23.386;2023-07-13T07:48:55;12.60;;;6.93;;
27209;SDS011;14721;42.668;23.386;2023-07-13T07:51:20;10.68;;;6.60;;
27209;SDS011;14721;42.668;23.386;2023-07-13T07:53:47;12.13;;;7.25;;
27209;SDS011;14721;42.668;23.386;2023-07-13T07:56:12;9.85;;;6.43;;
27209;SDS011;14721;42.668;23.386;2023-07-13T07:58:41;8.50;;;6.88;;
27209;SDS011;14721;42.668;23.386;2023-07-13T08:01:07;15.50;;;7.82;;
27209;SDS011;14721;42.668;23.386;2023-07-13T08:03:32;19.35;;;7.47;;
27209;SDS011;14721;42.668;23.386;2023-07-13T08:05:58;12.73;;;7.55;;
27209;SDS011;14721;42.668;23.386;2023-07-13T08:08:24;16.58;;;8.00;;
27209;SDS011;14721;42.668;23.386;2023-07-13T08:10:50;12.70;;;6.40;;
27209;SDS011;14721;42.668;23.386;2023-07-13T08:13:16;13.35;;;7.03;;
27209;SDS011;14721;42.668;23.386;2023-07-13T08:15:41;11.45;;;6.53;;
27209;SDS011;14721;42.668;23.386;2023-07-13T08:18:27;13.05;;;6.35;;
27209;SDS011;14721;42.668;23.386;2023-07-13T08:20:55;9.95;;;6.70;;
27209;SDS011;14721;42.668;23.386;2023-07-13T08:23:24;11.35;;;6.30;;
27209;SDS011;14721;42.668;23.386;2023-07-13T08:25:53;13.95;;;6.57;;
27209;SDS011;14721;42.668;23.386;2023-07-13T08:28:22;11.05;;;6.55;;
27209;SDS011;14721;42.668;23.386;2023-07-13T08:30:48;12.30;;;6.28;;
27209;SDS011;14721;42.668;23.386;2023-07-13T08:33:17;17.00;;;6.50;;
27209;SDS011;14721;42.668;23.386;2023-07-13T08:35:49;12.45;;;6.10;;
27209;SDS011;14721;42.668;23.386;2023-07-13T08:38:15;18.35;;;6.93;;
27209;SDS011;14721;42.668;23.386;2023-07-13T08:40:41;13.48;;;6.28;;
27209;SDS011;14721;42.668;23.386;2023-07-13T08:43:18;15.65;;;6.75;;
27209;SDS011;14721;42.668;23.386;2023-07-13T08:45:55;15.68;;;6.75;;
27209;SDS011;14721;42.668;23.386;2023-07-13T08:48:43;13.98;;;6.85;;
27209;SDS011;14721;42.668;23.386;2023-07-13T08:53:47;8.50;;;6.82;;
27209;SDS011;14721;42.668;23.386;2023-07-13T08:56:19;11.57;;;6.70;;
27209;SDS011;14721;42.668;23.386;2023-07-13T08:58:47;14.40;;;7.03;;
27209;SDS011;14721;42.668;23.386;2023-07-13T09:12:22;10.80;;;7.10;;
27209;SDS011;14721;42.668;23.386;2023-07-13T09:14:53;10.70;;;7.07;;
27209;SDS011;14721;42.668;23.386;2023-07-13T09:17:23;9.88;;;7.63;;
27209;SDS011;14721;42.668;23.386;2023-07-13T09:19:57;12.60;;;7.15;;
27209;SDS011;14721;42.668;23.386;2023-07-13T09:22:28;19.45;;;7.60;;
27209;SDS011;14721;42.668;23.386;2023-07-13T09:25:05;12.32;;;6.85;;
27209;SDS011;14721;42.668;23.386;2023-07-13T09:27:39;18.33;;;12.43;;
27209;SDS011;14721;42.668;23.386;2023-07-13T09:32:43;11.75;;;7.05;;
27209;SDS011;14721;42.668;23.386;2023-07-13T09:35:15;13.70;;;7.65;;
27209;SDS011;14721;42.668;23.386;2023-07-13T09:37:44;11.93;;;6.47;;
27209;SDS011;14721;42.668;23.386;2023-07-13T09:40:12;11.75;;;7.30;;
27209;SDS011;14721;42.668;23.386;2023-07-13T09:42:53;13.20;;;7.15;;
27209;SDS011;14721;42.668;23.386;2023-07-13T09:45:28;13.82;;;7.20;;
27209;SDS011;14721;42.668;23.386;2023-07-13T09:47:59;9.60;;;7.25;;
27209;SDS011;14721;42.668;23.386;2023-07-13T09:50:28;12.65;;;7.22;;
27209;SDS011;14721;42.668;23.386;2023-07-13T09:52:54;14.77;;;7.13;;
27209;SDS011;14721;42.668;23.386;2023-07-13T09:55:29;10.45;;;6.63;;
27209;SDS011;14721;42.668;23.386;2023-07-13T09:57:56;15.65;;;7.13;;
27209;SDS011;14721;42.668;23.386;2023-07-13T10:00:23;10.63;;;7.13;;
27209;SDS011;14721;42.668;23.386;2023-07-13T10:03:02;8.68;;;6.80;;
27209;SDS011;14721;42.668;23.386;2023-07-13T10:05:49;19.30;;;8.00;;
27209;SDS011;14721;42.668;23.386;2023-07-13T10:10:44;12.00;;;7.07;;
27209;SDS011;14721;42.668;23.386;2023-07-13T10:13:22;12.95;;;7.78;;
27209;SDS011;14721;42.668;23.386;2023-07-13T10:15:51;12.18;;;7.05;;
27209;SDS011;14721;42.668;23.386;2023-07-13T10:18:17;16.77;;;7.53;;
27209;SDS011;14721;42.668;23.386;2023-07-13T10:20:44;11.10;;;7.22;;
27209;SDS011;14721;42.668;23.386;2023-07-13T10:23:11;10.88;;;6.82;;
27209;SDS011;14721;42.668;23.386;2023-07-13T10:25:43;9.65;;;7.03;;
27209;SDS011;14721;42.668;23.386;2023-07-13T10:30:58;15.27;;;6.80;;
27209;SDS011;14721;42.668;23.386;2023-07-13T10:33:26;11.63;;;7.07;;
27209;SDS011;14721;42.668;23.386;2023-07-13T10:35:53;10.45;;;7.00;;
27209;SDS011;14721;42.668;23.386;2023-07-13T10:38:37;9.65;;;6.78;;
27209;SDS011;14721;42.668;23.386;2023-07-13T10:41:05;14.38;;;6.88;;
27209;SDS011;14721;42.668;23.386;2023-07-13T10:43:37;15.52;;;7.00;;
27209;SDS011;14721;42.668;23.386;2023-07-13T10:46:08;10.32;;;6.78;;
27209;SDS011;14721;42.668;23.386;2023-07-13T10:48:37;14.52;;;6.07;;
27209;SDS011;14721;42.668;23.386;2023-07-13T10:51:05;12.98;;;6.57;;
27209;SDS011;14721;42.668;23.386;2023-07-13T10:53:33;14.13;;;6.78;;
27209;SDS011;14721;42.668;23.386;2023-07-13T11:03:28;6.28;;;3.90;;
27209;SDS011;14721;42.668;23.386;2023-07-13T11:06:07;12.60;;;4.25;;
27209;SDS011;14721;42.668;23.386;2023-07-13T11:08:36;9.43;;;5.07;;
27209;SDS011;14721;42.668;23.386;2023-07-13T11:18:46;7.10;;;5.35;;
27209;SDS011;14721;42.668;23.386;2023-07-13T11:21:17;12.10;;;4.65;;
27209;SDS011;14721;42.668;23.386;2023-07-13T11:23:44;6.80;;;4.10;;
27209;SDS011;14721;42.668;23.386;2023-07-13T11:31:42;8.75;;;4.78;;
27209;SDS011;14721;42.668;23.386;2023-07-13T11:34:16;13.93;;;4.30;;
27209;SDS011;14721;42.668;23.386;2023-07-13T11:36:46;8.73;;;4.70;;
27209;SDS011;14721;42.668;23.386;2023-07-13T11:39:16;8.63;;;4.07;;
27209;SDS011;14721;42.668;23.386;2023-07-13T11:41:52;6.38;;;3.95;;
27209;SDS011;14721;42.668;23.386;2023-07-13T11:44:22;10.52;;;4.20;;
27209;SDS011;14721;42.668;23.386;2023-07-13T11:46:50;9.48;;;4.60;;
27209;SDS011;14721;42.668;23.386;2023-07-13T11:49:19;5.93;;;3.83;;
27209;SDS011;14721;42.668;23.386;2023-07-13T11:51:46;10.50;;;4.40;;
27209;SDS011;14721;42.668;23.386;2023-07-13T11:56:51;7.85;;;4.03;;
27209;SDS011;14721;42.668;23.386;2023-07-13T11:59:18;10.10;;;4.50;;
27209;SDS011;14721;42.668;23.386;2023-07-13T12:01:45;8.02;;;4.57;;
27209;SDS011;14721;42.668;23.386;2023-07-13T12:04:27;11.57;;;5.55;;
27209;SDS011;14721;42.668;23.386;2023-07-13T12:09:53;8.07;;;4.03;;
27209;SDS011;14721;42.668;23.386;2023-07-13T12:12:19;7.57;;;3.88;;
27209;SDS011;14721;42.668;23.386;2023-07-13T12:14:50;13.27;;;3.90;;
27209;SDS011;14721;42.668;23.386;2023-07-13T12:17:19;7.97;;;4.28;;
27209;SDS011;14721;42.668;23.386;2023-07-13T12:19:52;9.38;;;4.25;;
27209;SDS011;14721;42.668;23.386;2023-07-13T12:22:19;10.57;;;4.55;;
27209;SDS011;14721;42.668;23.386;2023-07-13T12:24:45;8.40;;;5.03;;
27209;SDS011;14721;42.668;23.386;2023-07-13T12:29:50;10.18;;;4.75;;
27209;SDS011;14721;42.668;23.386;2023-07-13T12:32:26;8.75;;;4.03;;
27209;SDS011;14721;42.668;23.386;2023-07-13T12:35:39;6.40;;;4.22;;
27209;SDS011;14721;42.668;23.386;2023-07-13T12:37:43;10.25;;;4.07;;
27209;SDS011;14721;42.668;23.386;2023-07-13T12:40:13;8.75;;;4.55;;
27209;SDS011;14721;42.668;23.386;2023-07-13T12:42:44;10.30;;;5.05;;
27209;SDS011;14721;42.668;23.386;2023-07-13T12:45:21;11.38;;;4.50;;
27209;SDS011;14721;42.668;23.386;2023-07-13T12:47:55;5.10;;;4.03;;
27209;SDS011;14721;42.668;23.386;2023-07-13T12:50:29;7.55;;;3.92;;
27209;SDS011;14721;42.668;23.386;2023-07-13T12:53:05;9.50;;;4.28;;
27209;SDS011;14721;42.668;23.386;2023-07-13T12:55:52;9.35;;;4.43;;
27209;SDS011;14721;42.668;23.386;2023-07-13T12:58:36;8.88;;;4.68;;
27209;SDS011;14721;42.668;23.386;2023-07-13T13:01:05;8.00;;;4.13;;
27209;SDS011;14721;42.668;23.386;2023-07-13T13:06:18;8.43;;;4.28;;
27209;SDS011;14721;42.668;23.386;2023-07-13T13:08:51;18.20;;;5.85;;
27209;SDS011;14721;42.668;23.386;2023-07-13T13:11:19;12.30;;;5.35;;
27209;SDS011;14721;42.668;23.386;2023-07-13T13:13:46;9.52;;;4.70;;
27209;SDS011;14721;42.668;23.386;2023-07-13T13:18:59;10.25;;;5.75;;
27209;SDS011;14721;42.668;23.386;2023-07-13T13:21:30;9.07;;;5.68;;
27209;SDS011;14721;42.668;23.386;2023-07-13T13:23:57;8.45;;;4.78;;
27209;SDS011;14721;42.668;23.386;2023-07-13T13:26:23;16.50;;;6.00;;
27209;SDS011;14721;42.668;23.386;2023-07-13T13:28:51;8.48;;;5.25;;
27209;SDS011;14721;42.668;23.386;2023-07-13T13:31:17;17.90;;;6.00;;
27209;SDS011;14721;42.668;23.386;2023-07-13T13:33:43;9.15;;;5.80;;
27209;SDS011;14721;42.668;23.386;2023-07-13T13:36:22;7.72;;;4.90;;
27209;SDS011;14721;42.668;23.386;2023-07-13T13:38:48;8.70;;;4.97;;
27209;SDS011;14721;42.668;23.386;2023-07-13T13:41:15;10.63;;;5.50;;
27209;SDS011;14721;42.668;23.386;2023-07-13T13:43:41;8.55;;;5.10;;
27209;SDS011;14721;42.668;23.386;2023-07-13T13:46:12;10.32;;;5.38;;
27209;SDS011;14721;42.668;23.386;2023-07-13T13:48:50;9.77;;;4.88;;
27209;SDS011;14721;42.668;23.386;2023-07-13T13:51:20;7.78;;;5.32;;
27209;SDS011;14721;42.668;23.386;2023-07-13T13:53:47;9.25;;;5.55;;
27209;SDS011;14721;42.668;23.386;2023-07-13T13:56:15;10.43;;;5.50;;
27209;SDS011;14721;42.668;23.386;2023-07-13T13:58:42;13.13;;;7.95;;
27209;SDS011;14721;42.668;23.386;2023-07-13T14:01:16;13.23;;;5.75;;
27209;SDS011;14721;42.668;23.386;2023-07-13T14:03:44;9.90;;;5.15;;
27209;SDS011;14721;42.668;23.386;2023-07-13T14:06:13;7.10;;;5.57;;
27209;SDS011;14721;42.668;23.386;2023-07-13T14:08:39;8.88;;;5.35;;
27209;SDS011;14721;42.668;23.386;2023-07-13T14:11:05;9.93;;;5.35;;
27209;SDS011;14721;42.668;23.386;2023-07-13T14:14:04;10.38;;;5.10;;
27209;SDS011;14721;42.668;23.386;2023-07-13T14:16:30;11.73;;;5.28;;
27209;SDS011;14721;42.668;23.386;2023-07-13T14:18:58;9.00;;;5.40;;
27209;SDS011;14721;42.668;23.386;2023-07-13T14:21:26;9.63;;;4.90;;
27209;SDS011;14721;42.668;23.386;2023-07-13T14:23:53;7.00;;;4.68;;
27209;SDS011;14721;42.668;23.386;2023-07-13T14:26:28;12.00;;;5.47;;
27209;SDS011;14721;42.668;23.386;2023-07-13T14:28:58;15.60;;;5.20;;
27209;SDS011;14721;42.668;23.386;2023-07-13T14:31:24;9.63;;;5.30;;
27209;SDS011;14721;42.668;23.386;2023-07-13T14:33:51;8.35;;;4.85;;
27209;SDS011;14721;42.668;23.386;2023-07-13T14:36:21;8.02;;;4.97;;
27209;SDS011;14721;42.668;23.386;2023-07-13T14:39:39;9.30;;;4.65;;
27209;SDS011;14721;42.668;23.386;2023-07-13T14:41:58;8.32;;;5.15;;
27209;SDS011;14721;42.668;23.386;2023-07-13T14:44:26;12.05;;;5.30;;
27209;SDS011;14721;42.668;23.386;2023-07-13T14:46:56;12.75;;;5.38;;
27209;SDS011;14721;42.668;23.386;2023-07-13T14:49:25;13.43;;;5.72;;
27209;SDS011;14721;42.668;23.386;2023-07-13T14:51:55;11.02;;;4.85;;
27209;SDS011;14721;42.668;23.386;2023-07-13T14:54:23;11.50;;;5.18;;
27209;SDS011;14721;42.668;23.386;2023-07-13T14:56:49;10.07;;;4.75;;
27209;SDS011;14721;42.668;23.386;2023-07-13T14:59:15;10.15;;;5.40;;
27209;SDS011;14721;42.668;23.386;2023-07-13T15:01:43;14.52;;;5.82;;
27209;SDS011;14721;42.668;23.386;2023-07-13T15:04:10;8.35;;;5.00;;
27209;SDS011;14721;42.668;23.386;2023-07-13T15:06:55;8.40;;;5.40;;
27209;SDS011;14721;42.668;23.386;2023-07-13T15:09:26;14.00;;;5.47;;
27209;SDS011;14721;42.668;23.386;2023-07-13T15:11:57;12.98;;;5.68;;
27209;SDS011;14721;42.668;23.386;2023-07-13T15:14:23;11.23;;;6.28;;
27209;SDS011;14721;42.668;23.386;2023-07-13T15:16:50;11.15;;;5.97;;
27209;SDS011;14721;42.668;23.386;2023-07-13T15:19:18;10.15;;;5.65;;
27209;SDS011;14721;42.668;23.386;2023-07-13T15:21:45;9.90;;;4.50;;
27209;SDS011;14721;42.668;23.386;2023-07-13T15:24:12;13.38;;;4.00;;
27209;SDS011;14721;42.668;23.386;2023-07-13T15:26:38;10.63;;;5.38;;
27209;SDS011;14721;42.668;23.386;2023-07-13T15:29:04;9.30;;;4.95;;
27209;SDS011;14721;42.668;23.386;2023-07-13T15:31:30;16.15;;;4.55;;
27209;SDS011;14721;42.668;23.386;2023-07-13T15:33:58;10.52;;;4.97;;